Maersk Iowa — KABL — position and weather

sailwx.info

Track history (hours):
 
Tides and Currents Weather Stations Pressure Air Temp Water Temp Dewpoint Dewpoint Depression Visibility Wind Speed Wind Dir Waves Ship Positions

Maersk Iowa

Owner: FARRELL LINES INC, Norfolk, VA. More information available from US FCC via Universal Licensing System and Coast Guard Vessel Documentation Center.

Last reported at 2016-May-27 19:26 UTC. Time now 2016-May-28 00:06 UTC.
Position N 49°44' W 006°06'.

Length 292 m; draft 12.5 m.

Type: Ship (hazmat cat A). MMSI: 367606000.

Date/timePositionNaut miles runAvg speedWind from/ knotsBaromVisibWave heightAir tempDewpointWater temp
2016-May-27 19:26N 49°44' W 006°06'3524.3
2016-May-27 18:00N 49°48' W 005°12'2311.9 300 / 31016.8 0.3 16.012.413.0
2016-May-27 16:04N 49°52' W 004°37'917.0
2016-May-27 15:33N 49°52' W 004°23'1717.3
2016-May-27 14:33N 49°54' W 003°57'1817.7
2016-May-27 13:33N 49°57' W 003°30'1817.6
2016-May-27 12:33N 49°59' W 003°03'916.7
2016-May-27 12:00N 50°00' W 002°48'717.1 050 / 101017.0 2.2 3.013.0 6.812.2
2016-May-27 11:33N 50°03' W 002°37'5316.1
2016-May-27 08:17N 50°16' W 001°18'1819.0
2016-May-27 07:20N 50°21' W 000°51'1619.7
2016-May-27 06:32N 50°25' W 000°27'1833.1
2016-May-27 06:00N 50°30' E 000°00'1 2.8 050 / 151016.7 5.4 1.013.0 9.112.0
2016-May-27 05:33N 50°30' E 000°02'1918.9
2016-May-27 04:33N 50°35' E 000°30'3417.0
2016-May-27 02:33N 50°57' E 001°12'1616.1
2016-May-27 01:33N 51°07' E 001°32'1817.5
2016-May-27 00:33N 51°20' E 001°51'1919.4
2016-May-26 23:33N 51°36' E 002°09'2019.6
2016-May-26 22:33N 51°50' E 002°30'1919.1
2016-May-26 21:33N 52°05' E 002°49'1818.1
2016-May-26 20:33N 52°19' E 003°08'1717.3
2016-May-26 19:33N 52°34' E 003°24'1716.8
2016-May-26 18:33N 52°47' E 003°41'1323.8
2016-May-26 18:00N 52°54' E 004°00'611.2 050 / 51018.310.8 0.515.0 9.212.0
2016-May-26 17:26N 52°60' E 004°04'1617.5
2016-May-26 16:32N 53°10' E 004°24'2618.1
2016-May-26 15:04N 53°32' E 004°49'1018.9
2016-May-26 14:33N 53°35' E 005°04'1818.2
2016-May-26 13:33N 53°41' E 005°34'1717.5
2016-May-26 12:33N 53°46' E 006°02'1716.6
2016-May-26 11:33N 53°51' E 006°29'1616.0
2016-May-26 10:33N 53°55' E 006°55'1616.1
2016-May-26 09:33N 53°58' E 007°22'1414.0
2016-May-26 08:33N 53°54' E 007°45'1414.1
2016-May-26 07:33N 53°49' E 008°07'1717.3
2016-May-26 06:33N 53°37' E 008°29'2 1.9
2016-May-26 05:33N 53°36' E 008°31'0 0.0
2016-May-26 04:32N 53°36' E 008°31'0 0.0
2016-May-26 03:32N 53°36' E 008°31'0 0.0
2016-May-26 02:32N 53°36' E 008°31'0 0.0
2016-May-26 01:32N 53°36' E 008°31'0 0.0
2016-May-26 00:32N 53°36' E 008°31'0 0.0
2016-May-25 23:31N 53°36' E 008°31'0 0.0
2016-May-25 22:31N 53°36' E 008°31'0 0.0
2016-May-25 21:31N 53°36' E 008°31'0 0.0
2016-May-25 20:31N 53°36' E 008°31'0 0.0
2016-May-25 19:31N 53°36' E 008°31'0 0.0
2016-May-25 18:31N 53°36' E 008°31'0 0.0
2016-May-25 17:31N 53°36' E 008°31'0 0.0
2016-May-25 16:31N 53°36' E 008°31'0 0.0
2016-May-25 15:31N 53°36' E 008°31'0 0.0
2016-May-25 14:31N 53°36' E 008°31'0 0.0
2016-May-25 13:31N 53°36' E 008°31'0 0.0
2016-May-25 12:31N 53°36' E 008°31'0 0.0
2016-May-25 11:31N 53°36' E 008°31'0 0.0
2016-May-25 10:31N 53°36' E 008°31'9 8.9
2016-May-25 09:33N 53°42' E 008°20'1817.6
2016-May-25 08:34N 53°52' E 007°56'1111.0
2016-May-25 07:33N 53°53' E 007°37'1616.0
2016-May-25 06:34N 53°52' E 007°10'1730.2
2016-May-25 06:00N 53°48' E 006°42'1 1.2 300 / 121014.7 2.2 1.512.010.112.5
2016-May-25 05:33N 53°48' E 006°43'1616.3
2016-May-25 04:34N 53°45' E 006°16'1616.3
2016-May-25 03:34N 53°40' E 005°50'1615.9
2016-May-25 02:34N 53°36' E 005°24'1615.6
2016-May-25 01:34N 53°29' E 004°60'1814.7
2016-May-25 00:21N 53°17' E 004°39'1215.4
2016-May-24 23:33N 53°06' E 004°28'1515.5
2016-May-24 22:33N 52°53' E 004°16'1615.6
2016-May-24 21:34N 52°39' E 004°03'1615.6
2016-May-24 20:34N 52°25' E 003°53'1716.5
2016-May-24 19:34N 52°09' E 003°55'1111.1
2016-May-24 18:33N 51°59' E 004°04'3 3.0
2016-May-24 17:33N 51°57' E 004°00'0 0.0
2016-May-24 16:33N 51°57' E 004°00'0 0.0
2016-May-24 03:31N 51°57' E 004°00'0 0.0
2016-May-24 02:33N 51°57' E 004°00'0 0.0
2016-May-24 01:32N 51°57' E 004°00'0 0.0
2016-May-24 00:33N 51°57' E 004°00'0 0.0
2016-May-23 23:33N 51°57' E 004°00'1 1.0
2016-May-23 22:33N 51°58' E 003°60'2 2.0
2016-May-23 21:33N 51°59' E 004°03'1211.6
2016-May-23 20:33N 51°59' E 003°44'7 5.9
2016-May-23 19:23N 51°55' E 003°34'3 2.0
2016-May-23 18:00N 51°54' E 003°30'3 0.5 330 / 201018.9 5.4 1.511.0 9.013.0
2016-May-23 12:26N 51°55' E 003°34'0 0.1
2016-May-23 11:26N 51°55' E 003°34'0 0.1
2016-May-23 10:32N 51°55' E 003°34'0 0.0
2016-May-23 09:34N 51°55' E 003°34'0 0.0
2016-May-23 08:34N 51°55' E 003°34'0 0.0
2016-May-23 07:32N 51°55' E 003°34'0 0.1
2016-May-23 06:33N 51°55' E 003°34'3 5.1
2016-May-23 06:00N 51°54' E 003°30'3 5.5 340 / 201012.810.8 1.513.0 9.112.7
2016-May-23 05:27N 51°56' E 003°34'0 0.1
2016-May-23 04:24N 51°56' E 003°34'0 0.0
2016-May-23 03:33N 51°56' E 003°34'1 1.0
2016-May-23 02:29N 51°55' E 003°35'1515.2
2016-May-23 01:31N 51°46' E 003°16'1617.2
2016-May-23 00:33N 51°31' E 003°05'10 9.6
2016-May-22 23:33N 51°25' E 003°17'1413.6
2016-May-22 22:33N 51°26' E 003°39'1111.3
2016-May-22 21:33N 51°22' E 003°56'1010.3
2016-May-22 20:34N 51°24' E 004°12'7 6.7
2016-May-22 19:33N 51°18' E 004°16'0 0.0
2016-May-22 18:34N 51°18' E 004°16'0 0.0
2016-May-22 17:33N 51°18' E 004°16'0 0.0
2016-May-22 16:34N 51°18' E 004°16'0 0.0
2016-May-22 15:34N 51°18' E 004°16'0 0.0
2016-May-22 14:33N 51°18' E 004°16'0 0.0
2016-May-22 13:33N 51°18' E 004°16'0 0.0
2016-May-22 12:34N 51°18' E 004°16'0 0.0
2016-May-22 11:34N 51°18' E 004°16'0 0.0
2016-May-22 10:34N 51°18' E 004°16'0 0.0
2016-May-22 09:34N 51°18' E 004°16'0 0.0
2016-May-22 08:34N 51°18' E 004°16'0 0.0
2016-May-22 07:34N 51°18' E 004°16'0 0.0
2016-May-22 06:33N 51°18' E 004°16'0 0.0
2016-May-22 05:34N 51°18' E 004°16'0 0.0
2016-May-22 04:34N 51°18' E 004°16'0 0.0
2016-May-22 03:33N 51°18' E 004°16'0 0.4
2016-May-22 02:33N 51°18' E 004°16'6 6.5
2016-May-22 01:34N 51°24' E 004°12'1010.5
2016-May-22 00:34N 51°22' E 003°55'1312.7
2016-May-21 23:34N 51°26' E 003°36'1716.7
2016-May-21 22:33N 51°24' E 003°09'1615.7
2016-May-21 21:34N 51°21' E 002°45'1111.2
2016-May-21 20:33N 51°21' E 002°26'1414.3
2016-May-21 19:34N 51°14' E 002°07'1615.6
2016-May-21 18:33N 51°07' E 001°45'1628.3
2016-May-21 18:00N 50°54' E 001°30'2 4.8 180 / 31009.5 5.4 16.012.412.5
2016-May-21 17:33N 50°56' E 001°29'4313.7
2016-May-21 14:25N 50°25' E 000°41'1213.5
2016-May-21 13:33N 50°22' E 000°23'1413.5
2016-May-21 12:33N 50°19' E 000°03'1413.9
2016-May-21 11:34N 50°15' W 000°18'1514.6
2016-May-21 10:34N 50°11' W 000°40'2316.1
2016-May-21 09:08N 50°04' W 001°14'5118.8
2016-May-21 06:25N 49°52' W 002°31'1227.8
2016-May-21 06:00N 49°48' W 002°48'4 9.9 200 / 201010.8 5.4 2.013.011.112.0
2016-May-21 05:34N 49°49' W 002°55'1818.3
2016-May-21 04:33N 49°44' W 003°22'1818.1
2016-May-21 03:33N 49°41' W 003°50'16817.6
2016-May-20 18:00N 49°18' W 008°06'9415.7 230 / 221010.7 5.4 2.013.011.113.0
2016-May-20 12:00N 49°18' W 010°30'11416.2 190 / 121011.3 2.2 1.016.810.213.1
2016-May-20 05:00N 49°12' W 013°24'10020.0 200 / 221011.9 5.4 2.013.512.613.6
2016-May-20 00:00N 48°54' W 015°54'10717.9 230 / 181014.1 1.1 2.015.0 9.213.6
2016-May-19 18:00N 48°42' W 018°36'10116.8 200 / 201015.310.8 2.015.013.213.0
2016-May-19 12:00N 48°24' W 021°06'10717.8 240 / 22 10.8 1.025.7 8.713.9
2016-May-19 06:00N 48°00' W 023°42'19216.0 280 / 201014.610.8 2.013.011.113.6
2016-May-18 18:00N 47°12' W 028°18'19115.9 230 / 211015.4 5.4 2.016.014.314.7
2016-May-18 06:00N 46°12' W 032°42'   200 / 261018.6 5.4 2.016.014.314.7
Track history (hours):
 
Tides and Currents Weather Stations Pressure Air Temp Water Temp Dewpoint Dewpoint Depression Visibility Wind Speed Wind Dir Waves Ship Positions

Maersk Iowa

Owner: FARRELL LINES INC, Norfolk, VA. More information available from US FCC via Universal Licensing System and Coast Guard Vessel Documentation Center.

Last reported at 2016-May-27 19:26 UTC. Time now 2016-May-28 00:06 UTC.
Position N 49°44' W 006°06'.

Length 292 m; draft 12.5 m.

Type: Ship (hazmat cat A). MMSI: 367606000.

Date/timePositionNaut miles runAvg speedWind from/ knotsBaromVisibWave heightAir tempDewpointWater temp
2016-May-27 19:26N 49°44' W 006°06'3524.3
2016-May-27 18:00N 49°48' W 005°12'2311.9 300 / 31016.8 0.3 16.012.413.0
2016-May-27 16:04N 49°52' W 004°37'917.0
2016-May-27 15:33N 49°52' W 004°23'1717.3
2016-May-27 14:33N 49°54' W 003°57'1817.7
2016-May-27 13:33N 49°57' W 003°30'1817.6
2016-May-27 12:33N 49°59' W 003°03'916.7
2016-May-27 12:00N 50°00' W 002°48'717.1 050 / 101017.0 2.2 3.013.0 6.812.2
2016-May-27 11:33N 50°03' W 002°37'5316.1
2016-May-27 08:17N 50°16' W 001°18'1819.0
2016-May-27 07:20N 50°21' W 000°51'1619.7
2016-May-27 06:32N 50°25' W 000°27'1833.1
2016-May-27 06:00N 50°30' E 000°00'1 2.8 050 / 151016.7 5.4 1.013.0 9.112.0
2016-May-27 05:33N 50°30' E 000°02'1918.9
2016-May-27 04:33N 50°35' E 000°30'3417.0
2016-May-27 02:33N 50°57' E 001°12'1616.1
2016-May-27 01:33N 51°07' E 001°32'1817.5
2016-May-27 00:33N 51°20' E 001°51'1919.4
2016-May-26 23:33N 51°36' E 002°09'2019.6
2016-May-26 22:33N 51°50' E 002°30'1919.1
2016-May-26 21:33N 52°05' E 002°49'1818.1
2016-May-26 20:33N 52°19' E 003°08'1717.3
2016-May-26 19:33N 52°34' E 003°24'1716.8
2016-May-26 18:33N 52°47' E 003°41'1323.8
2016-May-26 18:00N 52°54' E 004°00'611.2 050 / 51018.310.8 0.515.0 9.212.0
2016-May-26 17:26N 52°60' E 004°04'1617.5
2016-May-26 16:32N 53°10' E 004°24'2618.1
2016-May-26 15:04N 53°32' E 004°49'1018.9
2016-May-26 14:33N 53°35' E 005°04'1818.2
2016-May-26 13:33N 53°41' E 005°34'1717.5
2016-May-26 12:33N 53°46' E 006°02'1716.6
2016-May-26 11:33N 53°51' E 006°29'1616.0
2016-May-26 10:33N 53°55' E 006°55'1616.1
2016-May-26 09:33N 53°58' E 007°22'1414.0
2016-May-26 08:33N 53°54' E 007°45'1414.1
2016-May-26 07:33N 53°49' E 008°07'1717.3
2016-May-26 06:33N 53°37' E 008°29'2 1.9
2016-May-26 05:33N 53°36' E 008°31'0 0.0
2016-May-26 04:32N 53°36' E 008°31'0 0.0
2016-May-26 03:32N 53°36' E 008°31'0 0.0
2016-May-26 02:32N 53°36' E 008°31'0 0.0
2016-May-26 01:32N 53°36' E 008°31'0 0.0
2016-May-26 00:32N 53°36' E 008°31'0 0.0
2016-May-25 23:31N 53°36' E 008°31'0 0.0
2016-May-25 22:31N 53°36' E 008°31'0 0.0
2016-May-25 21:31N 53°36' E 008°31'0 0.0
2016-May-25 20:31N 53°36' E 008°31'0 0.0
2016-May-25 19:31N 53°36' E 008°31'0 0.0
2016-May-25 18:31N 53°36' E 008°31'0 0.0
2016-May-25 17:31N 53°36' E 008°31'0 0.0
2016-May-25 16:31N 53°36' E 008°31'0 0.0
2016-May-25 15:31N 53°36' E 008°31'0 0.0
2016-May-25 14:31N 53°36' E 008°31'0 0.0
2016-May-25 13:31N 53°36' E 008°31'0 0.0
2016-May-25 12:31N 53°36' E 008°31'0 0.0
2016-May-25 11:31N 53°36' E 008°31'0 0.0
2016-May-25 10:31N 53°36' E 008°31'9 8.9
2016-May-25 09:33N 53°42' E 008°20'1817.6
2016-May-25 08:34N 53°52' E 007°56'1111.0
2016-May-25 07:33N 53°53' E 007°37'1616.0
2016-May-25 06:34N 53°52' E 007°10'1730.2
2016-May-25 06:00N 53°48' E 006°42'1 1.2 300 / 121014.7 2.2 1.512.010.112.5
2016-May-25 05:33N 53°48' E 006°43'1616.3
2016-May-25 04:34N 53°45' E 006°16'1616.3
2016-May-25 03:34N 53°40' E 005°50'1615.9
2016-May-25 02:34N 53°36' E 005°24'1615.6
2016-May-25 01:34N 53°29' E 004°60'1814.7
2016-May-25 00:21N 53°17' E 004°39'1215.4
2016-May-24 23:33N 53°06' E 004°28'1515.5
2016-May-24 22:33N 52°53' E 004°16'1615.6
2016-May-24 21:34N 52°39' E 004°03'1615.6
2016-May-24 20:34N 52°25' E 003°53'1716.5
2016-May-24 19:34N 52°09' E 003°55'1111.1
2016-May-24 18:33N 51°59' E 004°04'3 3.0
2016-May-24 17:33N 51°57' E 004°00'0 0.0
2016-May-24 16:33N 51°57' E 004°00'0 0.0
2016-May-24 03:31N 51°57' E 004°00'0 0.0
2016-May-24 02:33N 51°57' E 004°00'0 0.0
2016-May-24 01:32N 51°57' E 004°00'0 0.0
2016-May-24 00:33N 51°57' E 004°00'0 0.0
2016-May-23 23:33N 51°57' E 004°00'1 1.0
2016-May-23 22:33N 51°58' E 003°60'2 2.0
2016-May-23 21:33N 51°59' E 004°03'1211.6
2016-May-23 20:33N 51°59' E 003°44'7 5.9
2016-May-23 19:23N 51°55' E 003°34'3 2.0
2016-May-23 18:00N 51°54' E 003°30'3 0.5 330 / 201018.9 5.4 1.511.0 9.013.0
2016-May-23 12:26N 51°55' E 003°34'0 0.1
2016-May-23 11:26N 51°55' E 003°34'0 0.1
2016-May-23 10:32N 51°55' E 003°34'0 0.0
2016-May-23 09:34N 51°55' E 003°34'0 0.0
2016-May-23 08:34N 51°55' E 003°34'0 0.0
2016-May-23 07:32N 51°55' E 003°34'0 0.1
2016-May-23 06:33N 51°55' E 003°34'3 5.1
2016-May-23 06:00N 51°54' E 003°30'3 5.5 340 / 201012.810.8 1.513.0 9.112.7
2016-May-23 05:27N 51°56' E 003°34'0 0.1
2016-May-23 04:24N 51°56' E 003°34'0 0.0
2016-May-23 03:33N 51°56' E 003°34'1 1.0
2016-May-23 02:29N 51°55' E 003°35'1515.2
2016-May-23 01:31N 51°46' E 003°16'1617.2
2016-May-23 00:33N 51°31' E 003°05'10 9.6
2016-May-22 23:33N 51°25' E 003°17'1413.6
2016-May-22 22:33N 51°26' E 003°39'1111.3
2016-May-22 21:33N 51°22' E 003°56'1010.3
2016-May-22 20:34N 51°24' E 004°12'7 6.7
2016-May-22 19:33N 51°18' E 004°16'0 0.0
2016-May-22 18:34N 51°18' E 004°16'0 0.0
2016-May-22 17:33N 51°18' E 004°16'0 0.0
2016-May-22 16:34N 51°18' E 004°16'0 0.0
2016-May-22 15:34N 51°18' E 004°16'0 0.0
2016-May-22 14:33N 51°18' E 004°16'0 0.0
2016-May-22 13:33N 51°18' E 004°16'0 0.0
2016-May-22 12:34N 51°18' E 004°16'0 0.0
2016-May-22 11:34N 51°18' E 004°16'0 0.0
2016-May-22 10:34N 51°18' E 004°16'0 0.0
2016-May-22 09:34N 51°18' E 004°16'0 0.0
2016-May-22 08:34N 51°18' E 004°16'0 0.0
2016-May-22 07:34N 51°18' E 004°16'0 0.0
2016-May-22 06:33N 51°18' E 004°16'0 0.0
2016-May-22 05:34N 51°18' E 004°16'0 0.0
2016-May-22 04:34N 51°18' E 004°16'0 0.0
2016-May-22 03:33N 51°18' E 004°16'0 0.4
2016-May-22 02:33N 51°18' E 004°16'6 6.5
2016-May-22 01:34N 51°24' E 004°12'1010.5
2016-May-22 00:34N 51°22' E 003°55'1312.7
2016-May-21 23:34N 51°26' E 003°36'1716.7
2016-May-21 22:33N 51°24' E 003°09'1615.7
2016-May-21 21:34N 51°21' E 002°45'1111.2
2016-May-21 20:33N 51°21' E 002°26'1414.3
2016-May-21 19:34N 51°14' E 002°07'1615.6
2016-May-21 18:33N 51°07' E 001°45'1628.3
2016-May-21 18:00N 50°54' E 001°30'2 4.8 180 / 31009.5 5.4 16.012.412.5
2016-May-21 17:33N 50°56' E 001°29'4313.7
2016-May-21 14:25N 50°25' E 000°41'1213.5
2016-May-21 13:33N 50°22' E 000°23'1413.5
2016-May-21 12:33N 50°19' E 000°03'1413.9
2016-May-21 11:34N 50°15' W 000°18'1514.6
2016-May-21 10:34N 50°11' W 000°40'2316.1
2016-May-21 09:08N 50°04' W 001°14'5118.8
2016-May-21 06:25N 49°52' W 002°31'1227.8
2016-May-21 06:00N 49°48' W 002°48'4 9.9 200 / 201010.8 5.4 2.013.011.112.0
2016-May-21 05:34N 49°49' W 002°55'1818.3
2016-May-21 04:33N 49°44' W 003°22'1818.1
2016-May-21 03:33N 49°41' W 003°50'16817.6
2016-May-20 18:00N 49°18' W 008°06'9415.7 230 / 221010.7 5.4 2.013.011.113.0
2016-May-20 12:00N 49°18' W 010°30'11416.2 190 / 121011.3 2.2 1.016.810.213.1
2016-May-20 05:00N 49°12' W 013°24'10020.0 200 / 221011.9 5.4 2.013.512.613.6
2016-May-20 00:00N 48°54' W 015°54'10717.9 230 / 181014.1 1.1 2.015.0 9.213.6
2016-May-19 18:00N 48°42' W 018°36'10116.8 200 / 201015.310.8 2.015.013.213.0
2016-May-19 12:00N 48°24' W 021°06'10717.8 240 / 22 10.8 1.025.7 8.713.9
2016-May-19 06:00N 48°00' W 023°42'19216.0 280 / 201014.610.8 2.013.011.113.6
2016-May-18 18:00N 47°12' W 028°18'19115.9 230 / 211015.4 5.4 2.016.014.314.7
2016-May-18 06:00N 46°12' W 032°42'   200 / 261018.6 5.4 2.016.014.314.7

Dump ship's entire track history